Time;durP1;ratioP1;P1;durP2;ratioP2;P2;SDS_P1;SDS_P2;PMS_P1;PMS_P2;Temp;Humidity;BMP_temperature;BMP_pressure;BME280_temperature;BME280_humidity;BME280_pressure;Samples;Min_cycle;Max_cycle;Signal;HPM_P1;HPM_P2
2022/08/18 00:02:20;;;;;;;8.70;5.80;;;19.90;99.90;;;;;;5017865;28;20230;-87
2022/08/18 00:04:46;;;;;;;6.68;5.57;;;19.90;99.90;;;;;;5017971;28;20243;-87
2022/08/18 00:07:20;;;;;;;7.82;5.22;;;19.80;99.90;;;;;;5018010;28;20183;-87
2022/08/18 00:09:46;;;;;;;7.10;6.10;;;19.80;99.90;;;;;;5017742;28;20202;-87
2022/08/18 00:12:37;;;;;;;5.95;5.18;;;19.60;99.90;;;;;;5034002;28;20191;-87
2022/08/18 00:15:07;;;;;;;6.40;5.70;;;19.60;99.90;;;;;;5015080;28;20186;-88
2022/08/18 00:17:35;;;;;;;5.97;5.38;;;19.70;99.90;;;;;;5017999;28;20285;-87
2022/08/18 00:20:02;;;;;;;6.65;5.25;;;19.60;99.90;;;;;;5017376;28;20233;-87
2022/08/18 00:22:28;;;;;;;6.20;5.60;;;19.60;99.90;;;;;;5034069;28;20198;-87
2022/08/18 00:24:56;;;;;;;6.25;5.28;;;19.50;99.90;;;;;;5017341;28;20213;-88
2022/08/18 00:27:29;;;;;;;6.63;5.70;;;19.50;99.90;;;;;;5017849;28;20547;-87
2022/08/18 00:29:58;;;;;;;7.63;6.10;;;19.60;99.90;;;;;;5016775;28;20179;-87
2022/08/18 00:32:30;;;;;;;6.13;5.60;;;19.50;99.90;;;;;;5017332;28;20210;-87
2022/08/18 00:34:56;;;;;;;6.13;5.53;;;19.50;99.90;;;;;;5017554;28;20476;-87
2022/08/18 00:37:22;;;;;;;6.22;5.63;;;19.50;99.90;;;;;;5017295;28;20205;-87
2022/08/18 00:39:52;;;;;;;6.07;5.38;;;19.60;99.90;;;;;;5033880;28;20175;-87
2022/08/18 00:42:27;;;;;;;6.47;5.72;;;19.60;99.90;;;;;;5017339;28;20203;-87
2022/08/18 00:44:55;;;;;;;6.18;5.57;;;19.60;99.90;;;;;;5017309;28;20269;-87
2022/08/18 00:47:21;;;;;;;6.45;5.85;;;19.60;99.90;;;;;;5033885;28;20697;-87
2022/08/18 00:49:50;;;;;;;6.38;5.78;;;19.60;99.90;;;;;;5017084;28;20170;-88
2022/08/18 00:52:18;;;;;;;6.50;5.80;;;19.50;99.90;;;;;;5016839;28;20733;-87
2022/08/18 00:54:50;;;;;;;8.75;6.00;;;19.50;99.90;;;;;;5017312;28;20229;-87
2022/08/18 00:57:20;;;;;;;5.95;5.35;;;19.50;99.90;;;;;;5017493;28;20182;-87
2022/08/18 00:59:55;;;;;;;6.57;5.97;;;19.40;99.90;;;;;;5017030;28;20729;-88
2022/08/18 01:02:27;;;;;;;6.15;5.65;;;19.40;99.90;;;;;;5017174;28;20201;-87
2022/08/18 01:05:12;;;;;;;6.60;6.10;;;19.30;99.90;;;;;;5016765;28;20234;-88
2022/08/18 01:07:46;;;;;;;6.63;6.03;;;19.40;99.90;;;;;;5016981;28;20194;-87
2022/08/18 01:10:19;;;;;;;7.07;6.47;;;19.40;99.90;;;;;;5017064;28;20220;-87
2022/08/18 01:12:47;;;;;;;6.80;6.20;;;19.50;99.90;;;;;;5033338;28;20285;-87
2022/08/18 01:15:15;;;;;;;7.00;6.40;;;19.50;99.90;;;;;;5016993;28;20183;-87
2022/08/18 01:21:49;;;;;;;6.88;5.85;;;19.50;99.90;;;;;;5032860;28;20179;-87
2022/08/18 01:23:48;;;;;;;6.22;5.63;;;19.50;99.90;;;;;;5032556;28;20187;-87
2022/08/18 01:26:16;;;;;;;6.22;5.72;;;19.30;99.90;;;;;;5016355;28;20183;-87
2022/08/18 01:28:44;;;;;;;6.57;6.05;;;19.30;99.90;;;;;;5032842;28;20186;-88
2022/08/18 01:31:12;;;;;;;7.03;6.25;;;19.20;99.90;;;;;;5016219;28;20182;-87
2022/08/18 01:33:43;;;;;;;7.03;6.32;;;19.30;99.90;;;;;;5032655;28;20186;-88
2022/08/18 01:36:16;;;;;;;6.68;6.13;;;19.30;99.90;;;;;;5016428;28;20173;-87
2022/08/18 01:38:43;;;;;;;7.03;6.40;;;19.40;99.90;;;;;;5016446;28;20175;-87
2022/08/18 01:41:09;;;;;;;6.35;5.60;;;19.30;99.90;;;;;;5016062;28;20240;-87
2022/08/18 01:43:36;;;;;;;6.93;6.20;;;19.20;99.90;;;;;;5015888;28;20222;-87
2022/08/18 01:46:03;;;;;;;7.10;6.40;;;19.10;99.90;;;;;;5016021;28;20186;-88
2022/08/18 01:48:33;;;;;;;6.85;6.05;;;19.10;99.90;;;;;;5016196;28;20182;-88
2022/08/18 01:51:06;;;;;;;6.82;6.25;;;19.00;99.90;;;;;;5016067;28;20213;-87
2022/08/18 01:53:32;;;;;;;6.40;5.82;;;19.00;99.90;;;;;;5032307;28;20245;-87
2022/08/18 01:55:58;;;;;;;6.32;5.72;;;19.00;99.90;;;;;;5016269;28;20293;-87
2022/08/18 01:58:27;;;;;;;7.35;6.65;;;19.00;99.90;;;;;;5015839;28;20209;-88
2022/08/18 02:01:00;;;;;;;7.18;6.57;;;19.00;99.90;;;;;;5031908;28;20179;-87
2022/08/18 02:03:33;;;;;;;6.68;5.97;;;19.00;99.90;;;;;;5032254;28;20590;-87
2022/08/18 02:06:01;;;;;;;6.68;5.88;;;19.00;99.90;;;;;;5032272;28;20336;-87
2022/08/18 02:08:28;;;;;;;6.68;6.00;;;19.00;99.90;;;;;;5032152;28;20178;-87
2022/08/18 02:10:55;;;;;;;6.75;6.15;;;19.00;99.90;;;;;;5015938;28;20233;-87
2022/08/18 02:13:21;;;;;;;6.43;5.82;;;19.00;99.90;;;;;;5015575;28;20244;-88
2022/08/18 02:15:46;;;;;;;6.70;6.10;;;19.00;99.90;;;;;;5032011;28;20243;-87
2022/08/18 02:18:17;;;;;;;7.07;6.15;;;19.00;99.90;;;;;;5032170;28;20178;-87
2022/08/18 02:20:43;;;;;;;6.68;6.07;;;19.00;99.90;;;;;;5015662;28;20232;-87
2022/08/18 02:23:10;;;;;;;6.32;5.82;;;19.00;99.90;;;;;;5015312;28;20202;-87
2022/08/18 02:25:37;;;;;;;6.75;6.05;;;19.00;99.90;;;;;;5032124;28;20206;-88
2022/08/18 02:28:04;;;;;;;6.55;6.00;;;19.00;99.90;;;;;;5015307;28;20232;-87
2022/08/18 02:30:32;;;;;;;7.55;6.50;;;18.90;99.90;;;;;;5015102;28;20177;-87
2022/08/18 02:32:58;;;;;;;7.20;6.57;;;18.90;99.90;;;;;;5015186;28;20211;-87
2022/08/18 02:35:24;;;;;;;7.65;6.95;;;18.90;99.90;;;;;;5015258;28;20269;-87
2022/08/18 02:37:50;;;;;;;7.03;6.40;;;18.90;99.90;;;;;;5015217;28;20183;-88
2022/08/18 02:40:17;;;;;;;7.97;7.18;;;18.90;99.90;;;;;;5015310;28;20227;-87
2022/08/18 02:42:45;;;;;;;7.80;7.10;;;18.90;99.90;;;;;;5015002;28;20222;-87
2022/08/18 02:45:13;;;;;;;7.90;7.05;;;18.90;99.90;;;;;;5014862;28;20206;-88
2022/08/18 02:47:39;;;;;;;7.35;6.68;;;18.80;99.90;;;;;;5015499;28;20167;-87
2022/08/18 02:50:06;;;;;;;7.90;7.20;;;18.80;99.90;;;;;;5014440;28;20175;-88
2022/08/18 02:52:33;;;;;;;7.63;6.85;;;18.90;99.90;;;;;;5014729;28;20202;-87
2022/08/18 02:55:00;;;;;;;8.02;7.22;;;18.80;99.90;;;;;;5014727;28;20182;-87
2022/08/18 02:57:27;;;;;;;7.40;6.72;;;18.90;99.90;;;;;;5015486;28;20228;-87
2022/08/18 02:59:54;;;;;;;7.85;7.15;;;18.90;99.90;;;;;;5014969;28;20206;-87
2022/08/18 03:02:21;;;;;;;7.70;7.00;;;18.80;99.90;;;;;;5014764;28;20225;-87
2022/08/18 03:04:48;;;;;;;7.60;6.93;;;18.80;99.90;;;;;;5015350;28;20259;-87
2022/08/18 03:07:14;;;;;;;8.15;7.35;;;18.80;99.90;;;;;;5031286;28;20178;-87
2022/08/18 03:09:40;;;;;;;9.45;7.38;;;18.80;99.90;;;;;;5014676;28;20179;-87
2022/08/18 03:12:08;;;;;;;7.80;6.60;;;18.80;99.90;;;;;;5013957;28;20301;-87
2022/08/18 03:14:35;;;;;;;7.18;6.57;;;18.80;99.90;;;;;;5031185;28;20189;-87
2022/08/18 03:17:04;;;;;;;7.80;7.10;;;18.80;99.90;;;;;;5015060;28;20178;-88
2022/08/18 03:19:31;;;;;;;8.82;7.82;;;18.90;99.90;;;;;;5014587;28;20632;-87
2022/08/18 03:21:58;;;;;;;8.10;7.40;;;19.00;99.90;;;;;;5014746;28;20206;-87
2022/08/18 03:24:26;;;;;;;8.27;7.43;;;19.00;99.90;;;;;;5014378;28;20706;-88
2022/08/18 03:26:55;;;;;;;8.27;7.47;;;19.10;99.90;;;;;;5014919;28;20266;-87
2022/08/18 03:29:22;;;;;;;7.72;6.93;;;19.10;99.90;;;;;;5014759;28;20236;-87
2022/08/18 03:31:49;;;;;;;7.80;7.10;;;19.00;99.90;;;;;;5014290;28;20206;-88
2022/08/18 03:34:18;;;;;;;7.75;6.72;;;19.00;99.90;;;;;;5031192;28;20239;-88
2022/08/18 03:36:44;;;;;;;6.90;6.30;;;19.00;99.90;;;;;;5014644;28;20186;-88
2022/08/18 03:39:12;;;;;;;7.45;6.75;;;18.90;99.90;;;;;;5014907;28;20183;-87
2022/08/18 03:41:41;;;;;;;7.63;6.80;;;18.90;99.90;;;;;;5014269;28;20217;-87
2022/08/18 03:44:08;;;;;;;6.88;6.28;;;18.90;99.90;;;;;;5014590;28;20282;-87
2022/08/18 03:46:34;;;;;;;7.25;6.55;;;19.00;99.90;;;;;;5031068;28;20627;-87
2022/08/18 03:49:00;;;;;;;8.65;7.22;;;18.90;99.90;;;;;;5014766;28;20178;-87
2022/08/18 03:51:33;;;;;;;8.02;7.28;;;18.90;99.90;;;;;;5014115;28;20189;-87
2022/08/18 03:54:02;;;;;;;7.45;6.75;;;18.90;99.90;;;;;;5030878;28;20162;-87
2022/08/18 03:56:36;;;;;;;7.28;6.57;;;18.90;99.90;;;;;;5014506;28;20179;-87
2022/08/18 03:59:16;;;;;;;8.20;7.45;;;19.00;99.90;;;;;;5030906;28;20264;-87
2022/08/18 04:01:45;;;;;;;7.88;7.18;;;19.00;99.90;;;;;;5013382;28;20248;-87
2022/08/18 04:04:26;;;;;;;8.07;7.35;;;19.00;99.90;;;;;;5014329;28;20199;-87
2022/08/18 04:06:57;;;;;;;7.75;6.95;;;19.00;99.90;;;;;;5017054;28;20284;-87
2022/08/18 04:09:26;;;;;;;7.45;6.80;;;19.00;99.90;;;;;;5034318;28;20199;-87
2022/08/18 04:12:13;;;;;;;7.50;6.80;;;19.00;99.90;;;;;;5017436;28;20230;-87
2022/08/18 04:14:41;;;;;;;7.63;6.85;;;18.90;99.90;;;;;;5017802;28;20170;-87
2022/08/18 04:17:08;;;;;;;7.70;7.00;;;18.90;99.90;;;;;;5018054;28;20235;-87
2022/08/18 04:19:35;;;;;;;7.95;7.15;;;18.90;99.90;;;;;;5017789;28;20171;-87
2022/08/18 04:22:02;;;;;;;7.47;6.85;;;18.90;99.90;;;;;;5033997;28;20292;-87
2022/08/18 04:24:30;;;;;;;7.97;7.18;;;18.90;99.90;;;;;;5017565;28;20199;-87
2022/08/18 04:26:57;;;;;;;7.97;7.28;;;18.80;99.90;;;;;;5034045;28;20210;-87
2022/08/18 04:29:23;;;;;;;8.55;7.75;;;18.80;99.90;;;;;;5017539;28;20209;-87
2022/08/18 04:31:50;;;;;;;8.25;7.45;;;18.80;99.90;;;;;;5017333;28;20194;-88
2022/08/18 04:34:19;;;;;;;8.30;7.53;;;18.90;99.90;;;;;;5017435;28;20185;-87
2022/08/18 04:36:45;;;;;;;8.48;7.72;;;18.90;99.90;;;;;;5033881;28;20179;-87
2022/08/18 04:39:12;;;;;;;9.05;8.15;;;18.90;99.90;;;;;;5033801;28;20218;-88
2022/08/18 04:41:40;;;;;;;9.05;8.15;;;18.90;99.90;;;;;;5016988;28;20293;-87
2022/08/18 04:44:08;;;;;;;8.23;7.53;;;18.80;99.90;;;;;;5017598;28;20264;-87
2022/08/18 04:46:43;;;;;;;8.48;7.68;;;18.90;99.90;;;;;;5017209;28;20178;-87
2022/08/18 04:49:10;;;;;;;8.48;7.60;;;18.90;99.90;;;;;;5033891;28;20189;-87
2022/08/18 04:51:41;;;;;;;7.82;6.97;;;18.90;99.90;;;;;;5016846;28;20281;-87
2022/08/18 04:54:07;;;;;;;7.80;7.05;;;18.90;99.90;;;;;;5033480;28;20186;-87
2022/08/18 04:56:37;;;;;;;7.57;6.50;;;18.90;99.90;;;;;;5016801;28;20232;-87
2022/08/18 04:59:08;;;;;;;7.93;7.13;;;18.80;99.90;;;;;;5017280;28;20647;-87
2022/08/18 05:02:07;;;;;;;8.02;6.63;;;18.80;99.90;;;;;;5032342;28;20198;-87
2022/08/18 05:04:39;;;;;;;7.55;6.70;;;18.80;99.90;;;;;;5017191;28;20252;-87
2022/08/18 05:07:10;;;;;;;7.22;6.63;;;18.80;99.90;;;;;;5033391;28;20246;-87
2022/08/18 05:09:37;;;;;;;8.25;7.53;;;18.80;99.90;;;;;;5017107;28;20269;-89
2022/08/18 05:12:05;;;;;;;7.47;6.78;;;18.70;99.90;;;;;;5016526;28;20202;-87
2022/08/18 05:14:44;;;;;;;8.18;7.47;;;18.70;99.90;;;;;;5016456;28;20175;-87
2022/08/18 05:17:11;;;;;;;7.20;6.50;;;18.70;99.90;;;;;;5016225;28;20185;-87
2022/08/18 05:19:37;;;;;;;7.38;6.72;;;18.80;99.90;;;;;;5016827;28;20186;-88
2022/08/18 05:22:04;;;;;;;7.88;7.18;;;18.80;99.90;;;;;;5016347;28;20226;-87
2022/08/18 05:24:34;;;;;;;9.30;7.32;;;18.80;99.90;;;;;;5032920;28;20233;-87
2022/08/18 05:27:00;;;;;;;9.15;7.75;;;18.80;99.90;;;;;;5033150;28;20175;-87
2022/08/18 05:29:28;;;;;;;8.23;7.47;;;18.90;99.90;;;;;;5016368;28;20175;-87
2022/08/18 05:31:54;;;;;;;8.38;7.07;;;18.90;99.90;;;;;;5032178;28;20199;-88
2022/08/18 05:34:20;;;;;;;7.63;6.93;;;19.00;99.90;;;;;;5016323;28;20179;-87
2022/08/18 05:36:50;;;;;;;7.65;6.95;;;19.00;99.90;;;;;;5016335;28;20646;-87
2022/08/18 05:39:31;;;;;;;8.68;7.78;;;19.00;99.90;;;;;;5016082;28;20191;-87
2022/08/18 05:42:02;;;;;;;7.68;6.97;;;19.10;99.90;;;;;;5015860;28;20405;-87
2022/08/18 05:44:31;;;;;;;7.47;6.88;;;19.00;99.90;;;;;;5032877;28;20198;-87
2022/08/18 05:47:07;;;;;;;7.63;6.93;;;18.90;99.90;;;;;;5016146;28;20631;-87
2022/08/18 05:49:34;;;;;;;7.47;6.78;;;19.00;99.90;;;;;;5016012;28;20186;-87
2022/08/18 05:52:05;;;;;;;7.88;6.95;;;19.00;99.90;;;;;;5015562;28;20190;-87
2022/08/18 05:57:46;;;;;;;7.45;6.70;;;19.20;99.90;;;;;;5032813;28;20193;-87
2022/08/18 06:00:13;;;;;;;7.68;6.97;;;19.20;99.90;;;;;;5015932;28;20181;-87
2022/08/18 06:02:53;;;;;;;8.90;7.38;;;19.30;99.90;;;;;;5015795;28;20210;-87
2022/08/18 06:05:53;;;;;;;9.05;7.30;;;19.30;99.90;;;;;;5015769;28;20205;-87
2022/08/18 06:08:24;;;;;;;8.13;7.43;;;19.30;99.90;;;;;;5032338;28;20306;-87
2022/08/18 06:10:50;;;;;;;7.90;7.03;;;19.30;99.90;;;;;;5015642;28;20163;-87
2022/08/18 06:13:18;;;;;;;8.05;7.35;;;19.30;99.90;;;;;;5015727;28;20201;-87
2022/08/18 06:16:04;;;;;;;10.68;7.90;;;19.20;99.90;;;;;;5015662;28;20178;-87
2022/08/18 06:19:04;;;;;;;7.95;7.25;;;19.30;99.90;;;;;;5015800;28;20181;-87
2022/08/18 06:21:42;;;;;;;7.65;6.85;;;19.30;99.90;;;;;;5031656;28;20183;-87
2022/08/18 06:24:39;;;;;;;7.90;7.13;;;19.30;99.90;;;;;;5015827;28;20308;-87
2022/08/18 06:27:19;;;;;;;8.30;7.50;;;19.30;99.90;;;;;;5015594;28;20166;-87
2022/08/18 06:30:34;;;;;;;9.38;8.48;;;19.30;99.90;;;;;;5030248;28;20170;-88
2022/08/18 06:33:06;;;;;;;9.25;7.85;;;19.40;99.90;;;;;;5015596;28;20198;-87
2022/08/18 06:35:38;;;;;;;8.30;7.45;;;19.40;99.90;;;;;;5015212;28;20171;-87
2022/08/18 06:41:19;;;;;;;9.00;8.20;;;19.30;99.90;;;;;;5032872;28;20177;-87
2022/08/18 06:43:58;;;;;;;8.68;7.90;;;19.30;99.90;;;;;;5015468;28;20181;-87
2022/08/18 06:46:39;;;;;;;9.10;7.70;;;19.40;99.90;;;;;;5015073;28;20186;-87
2022/08/18 06:49:09;;;;;;;8.70;8.00;;;19.40;99.90;;;;;;5031467;28;20163;-88
2022/08/18 06:51:36;;;;;;;9.35;8.52;;;19.50;99.90;;;;;;5013915;28;20705;-88
2022/08/18 06:54:25;;;;;;;8.88;8.05;;;19.60;99.90;;;;;;5014623;28;20175;-87
2022/08/18 06:56:53;;;;;;;9.95;8.95;;;19.60;99.90;;;;;;5014154;28;20266;-88
2022/08/18 06:59:21;;;;;;;8.68;7.88;;;19.50;99.90;;;;;;5014111;28;20171;-87
2022/08/18 07:02:00;;;;;;;8.88;8.05;;;19.50;99.90;;;;;;5031183;28;20238;-87
2022/08/18 07:04:41;;;;;;;9.55;8.65;;;19.40;99.90;;;;;;5014667;28;20209;-87
2022/08/18 07:07:38;;;;;;;10.23;9.25;;;19.30;99.90;;;;;;5014788;28;20167;-87
2022/08/18 07:10:26;;;;;;;10.35;8.05;;;19.20;99.90;;;;;;5014579;28;20171;-87
2022/08/18 07:13:04;;;;;;;9.70;8.80;;;19.10;99.90;;;;;;5031260;28;20198;-87
2022/08/18 07:15:31;;;;;;;9.50;8.60;;;19.10;99.90;;;;;;5031168;28;20268;-87
2022/08/18 07:18:06;;;;;;;9.95;7.93;;;19.00;99.90;;;;;;5031226;28;20208;-87
2022/08/18 07:20:47;;;;;;;8.88;8.07;;;19.10;99.90;;;;;;5014723;28;20174;-87
2022/08/18 07:23:32;;;;;;;9.10;8.20;;;19.10;99.90;;;;;;5025215;28;20286;-90
2022/08/18 07:26:09;;;;;;;9.40;8.15;;;19.20;99.90;;;;;;5022485;28;20316;-87
2022/08/18 07:28:43;;;;;;;9.15;8.35;;;19.30;99.90;;;;;;5014948;28;20175;-87
2022/08/18 07:31:41;;;;;;;8.32;7.63;;;19.30;99.90;;;;;;5014606;28;20250;-87
2022/08/18 07:34:35;;;;;;;9.48;8.52;;;19.30;99.90;;;;;;5014772;28;20178;-87
2022/08/18 07:37:16;;;;;;;9.07;8.27;;;19.40;99.90;;;;;;5026935;28;20201;-87
2022/08/18 07:39:55;;;;;;;9.63;8.70;;;19.40;99.90;;;;;;5032035;28;20257;-87
2022/08/18 07:42:28;;;;;;;8.80;8.00;;;19.50;99.90;;;;;;5018702;28;20237;-87
2022/08/18 07:45:03;;;;;;;9.15;8.32;;;19.50;99.90;;;;;;5018839;28;20289;-87
2022/08/18 07:47:41;;;;;;;8.43;7.65;;;19.60;99.90;;;;;;5018111;28;20236;-87
2022/08/18 07:50:07;;;;;;;8.68;7.88;;;19.70;99.90;;;;;;5017178;28;20170;-87
2022/08/18 07:52:42;;;;;;;8.93;8.02;;;19.70;99.90;;;;;;5033395;28;20191;-87
2022/08/18 07:55:30;;;;;;;10.90;7.93;;;19.80;99.90;;;;;;5018165;28;20182;-87
2022/08/18 07:58:11;;;;;;;9.98;8.98;;;19.80;99.90;;;;;;5018130;28;20213;-87
2022/08/18 08:00:52;;;;;;;9.63;8.52;;;19.90;99.90;;;;;;5017738;28;20198;-87
2022/08/18 08:03:43;;;;;;;8.95;8.15;;;19.80;99.90;;;;;;5018424;28;20218;-87
2022/08/18 08:06:30;;;;;;;9.27;8.38;;;19.90;99.90;;;;;;5018089;28;20237;-87
2022/08/18 08:09:05;;;;;;;8.77;8.07;;;20.10;99.90;;;;;;5017935;28;20175;-87
2022/08/18 08:11:51;;;;;;;9.80;8.90;;;20.40;99.90;;;;;;5017588;28;20250;-87
2022/08/18 08:14:40;;;;;;;9.10;8.10;;;20.60;99.90;;;;;;5017809;28;20319;-87
2022/08/18 08:17:18;;;;;;;9.23;8.43;;;20.90;99.90;;;;;;5017823;28;20175;-88
2022/08/18 08:19:52;;;;;;;8.77;7.90;;;21.30;99.90;;;;;;5017508;28;20258;-87
2022/08/18 08:22:38;;;;;;;8.73;7.97;;;21.50;99.90;;;;;;5033865;28;20259;-87
2022/08/18 08:25:21;;;;;;;8.10;7.30;;;21.50;99.90;;;;;;5017518;28;20218;-87
2022/08/18 08:28:25;;;;;;;8.70;7.55;;;21.60;99.90;;;;;;5017527;28;20307;-87
2022/08/18 08:31:15;;;;;;;9.27;7.95;;;21.70;99.90;;;;;;5017871;28;20181;-88
2022/08/18 08:33:48;;;;;;;8.60;7.80;;;21.80;99.90;;;;;;5017365;28;20293;-88
2022/08/18 08:36:23;;;;;;;9.30;8.50;;;21.90;99.90;;;;;;5033801;28;20183;-88
2022/08/18 08:39:12;;;;;;;7.97;7.18;;;21.80;99.90;;;;;;5017360;28;20277;-88
2022/08/18 08:41:44;;;;;;;8.63;7.78;;;22.20;99.90;;;;;;5033405;28;20202;-88
2022/08/18 08:44:20;;;;;;;8.60;7.70;;;22.40;99.90;;;;;;5017642;28;20217;-88
2022/08/18 08:46:54;;;;;;;7.90;7.20;;;22.80;99.90;;;;;;5017279;28;20208;-88
2022/08/18 08:49:26;;;;;;;8.30;7.57;;;23.10;99.90;;;;;;5017174;28;20178;-88
2022/08/18 08:51:57;;;;;;;7.70;6.90;;;23.30;99.90;;;;;;5016041;28;20199;-88
2022/08/18 08:54:42;;;;;;;8.30;7.60;;;23.50;99.90;;;;;;5017528;28;20245;-88
2022/08/18 08:57:11;;;;;;;7.10;6.40;;;23.70;99.90;;;;;;5017405;28;20257;-88
2022/08/18 08:59:38;;;;;;;6.72;6.13;;;24.00;99.90;;;;;;5033329;28;20178;-89
2022/08/18 09:02:25;;;;;;;7.20;6.53;;;24.30;99.90;;;;;;5016735;28;20217;-88
2022/08/18 09:05:00;;;;;;;6.32;5.82;;;24.50;99.90;;;;;;5017043;28;20207;-88
2022/08/18 09:07:46;;;;;;;7.07;6.43;;;24.60;99.90;;;;;;5017177;28;20178;-88
2022/08/18 09:10:48;;;;;;;7.25;6.65;;;24.70;99.90;;;;;;5016369;28;20643;-88
2022/08/18 09:13:33;;;;;;;7.53;6.93;;;24.70;99.90;;;;;;5010524;28;20208;-88
2022/08/18 09:15:58;;;;;;;7.25;6.65;;;24.70;99.90;;;;;;5016680;28;20261;-88
2022/08/18 09:18:47;;;;;;;6.43;5.85;;;24.80;99.90;;;;;;5016519;28;20301;-87
2022/08/18 09:21:37;;;;;;;7.35;6.75;;;24.80;99.90;;;;;;5012926;28;20306;-87
2022/08/18 09:24:27;;;;;;;8.02;7.22;;;24.70;99.90;;;;;;5016894;28;20179;-88
2022/08/18 09:27:02;;;;;;;7.63;7.03;;;24.40;99.90;;;;;;5017668;28;20190;-87
2022/08/18 09:29:37;;;;;;;7.95;7.30;;;24.20;99.90;;;;;;5016122;28;20170;-87
2022/08/18 09:32:18;;;;;;;8.05;7.35;;;24.30;99.90;;;;;;5016514;28;20201;-88
2022/08/18 09:34:50;;;;;;;6.95;6.35;;;24.50;99.90;;;;;;5016465;28;20179;-88
2022/08/18 09:37:24;;;;;;;7.78;6.78;;;24.60;99.90;;;;;;5016396;28;20179;-88
2022/08/18 09:43:05;;;;;;;7.13;6.43;;;24.90;99.90;;;;;;5032884;28;20237;-88
2022/08/18 09:45:31;;;;;;;7.25;6.55;;;25.10;99.90;;;;;;5016051;28;20285;-87
2022/08/18 09:47:58;;;;;;;6.72;6.13;;;25.10;99.90;;;;;;5016359;28;20266;-88
2022/08/18 09:50:27;;;;;;;6.70;6.10;;;25.10;99.90;;;;;;5015752;28;20217;-88
2022/08/18 09:53:14;;;;;;;6.72;6.13;;;25.10;99.90;;;;;;5016000;28;20202;-88
2022/08/18 09:55:53;;;;;;;6.82;6.20;;;25.40;99.90;;;;;;5032689;28;20166;-88
2022/08/18 09:58:38;;;;;;;6.85;6.25;;;25.60;99.90;;;;;;5032393;28;20202;-88
2022/08/18 10:01:40;;;;;;;6.82;6.18;;;25.50;99.90;;;;;;5015156;28;20178;-88
2022/08/18 10:04:17;;;;;;;8.10;6.25;;;25.70;99.90;;;;;;4994119;28;20183;-88
2022/08/18 10:06:46;;;;;;;6.57;6.07;;;25.80;99.90;;;;;;5009831;28;20182;-88
2022/08/18 10:09:38;;;;;;;6.60;6.00;;;25.90;99.90;;;;;;5032071;28;20231;-87
2022/08/18 10:12:45;;;;;;;7.22;6.53;;;26.20;99.90;;;;;;5015395;28;20195;-88
2022/08/18 10:15:59;;;;;;;7.43;6.72;;;26.20;99.90;;;;;;5015538;28;20182;-88
2022/08/18 10:18:44;;;;;;;7.22;6.63;;;26.30;99.90;;;;;;5015489;28;20651;-88
2022/08/18 10:21:19;;;;;;;6.63;6.03;;;26.40;99.90;;;;;;5015124;28;20178;-88
2022/08/18 10:23:57;;;;;;;7.40;6.80;;;26.30;99.90;;;;;;5015580;28;20265;-88
2022/08/18 10:26:29;;;;;;;7.07;6.50;;;26.20;99.90;;;;;;5032112;28;20178;-88
2022/08/18 10:29:02;;;;;;;6.82;6.22;;;26.20;99.90;;;;;;5015249;28;20182;-88
2022/08/18 10:31:31;;;;;;;7.22;6.53;;;26.40;99.90;;;;;;5015298;28;20209;-88
2022/08/18 10:33:57;;;;;;;6.93;6.22;;;26.60;99.90;;;;;;5015214;28;20225;-88
2022/08/18 10:36:38;;;;;;;6.75;6.07;;;26.80;99.90;;;;;;5015460;28;20174;-88
2022/08/18 10:39:33;;;;;;;7.60;6.90;;;26.80;99.90;;;;;;5015259;28;20229;-88
2022/08/18 10:42:05;;;;;;;7.30;6.60;;;26.80;99.90;;;;;;5012780;28;20217;-88
2022/08/18 10:44:40;;;;;;;6.07;5.47;;;26.80;99.90;;;;;;5015452;28;20214;-88
2022/08/18 10:47:08;;;;;;;7.30;5.72;;;26.80;99.90;;;;;;5015400;28;20170;-88
2022/08/18 10:49:35;;;;;;;6.63;6.00;;;26.80;99.90;;;;;;5015111;28;20182;-88
2022/08/18 10:52:17;;;;;;;5.95;5.43;;;26.90;99.90;;;;;;5014834;28;20205;-88
2022/08/18 10:55:18;;;;;;;6.63;6.03;;;26.80;99.90;;;;;;5015703;28;20178;-87
2022/08/18 10:58:01;;;;;;;7.28;6.50;;;26.60;99.90;;;;;;4996483;28;20194;-88
2022/08/18 11:01:07;;;;;;;7.50;6.45;;;26.70;99.90;;;;;;5014348;28;20197;-88
2022/08/18 11:03:36;;;;;;;7.20;6.60;;;26.60;99.90;;;;;;5014556;28;20202;-88
2022/08/18 11:06:13;;;;;;;7.15;6.55;;;26.60;99.90;;;;;;5015105;28;20292;-88
2022/08/18 11:08:45;;;;;;;6.57;6.05;;;26.70;99.90;;;;;;5031752;28;20166;-88
2022/08/18 11:11:12;;;;;;;7.90;7.20;;;26.70;99.90;;;;;;5014650;28;20212;-88
2022/08/18 11:14:06;;;;;;;7.38;6.38;;;26.50;99.90;;;;;;5014948;28;20187;-88
2022/08/18 11:17:00;;;;;;;6.38;5.88;;;26.40;99.90;;;;;;5019376;28;20186;-88
2022/08/18 11:19:27;;;;;;;7.93;6.75;;;26.40;99.90;;;;;;5019366;28;20170;-88
2022/08/18 11:21:53;;;;;;;7.03;6.43;;;26.20;99.90;;;;;;5019382;28;20260;-88
2022/08/18 11:24:27;;;;;;;7.32;6.63;;;26.10;99.90;;;;;;5020218;28;20241;-88
2022/08/18 11:26:57;;;;;;;8.30;7.13;;;26.00;99.90;;;;;;5018814;28;20189;-88
2022/08/18 11:29:22;;;;;;;7.40;6.80;;;26.00;99.90;;;;;;5019019;28;20242;-88
2022/08/18 11:31:57;;;;;;;6.78;6.13;;;26.00;99.90;;;;;;5018319;28;20289;-88
2022/08/18 11:34:34;;;;;;;6.50;5.88;;;26.00;99.90;;;;;;5019038;28;20182;-88
2022/08/18 11:37:04;;;;;;;6.53;5.88;;;26.10;99.90;;;;;;5035408;28;20702;-87
2022/08/18 11:39:30;;;;;;;6.00;5.50;;;26.20;99.90;;;;;;5018726;28;20218;-88
2022/08/18 11:41:57;;;;;;;6.63;5.80;;;26.20;99.90;;;;;;5018071;28;20231;-88
2022/08/18 11:44:30;;;;;;;6.18;5.68;;;26.20;99.90;;;;;;5034895;28;20226;-88
2022/08/18 11:47:12;;;;;;;7.03;6.43;;;26.00;99.90;;;;;;5035191;28;20166;-88
2022/08/18 11:49:50;;;;;;;7.65;6.93;;;25.90;99.90;;;;;;5018187;28;20627;-88
2022/08/18 11:52:19;;;;;;;6.88;6.28;;;25.80;99.90;;;;;;5034707;28;20208;-88
2022/08/18 11:54:48;;;;;;;7.95;7.15;;;25.70;99.90;;;;;;5018157;28;20182;-88
2022/08/18 11:57:53;;;;;;;8.25;7.53;;;25.30;99.90;;;;;;5018247;28;20182;-88
2022/08/18 12:00:54;;;;;;;7.57;6.90;;;24.80;99.90;;;;;;5007106;28;20190;-88
2022/08/18 12:03:43;;;;;;;7.60;6.90;;;24.70;99.90;;;;;;5018067;28;20194;-88
2022/08/18 12:06:26;;;;;;;8.85;7.95;;;24.70;99.90;;;;;;5018256;28;20203;-88
2022/08/18 12:08:57;;;;;;;7.93;7.10;;;24.70;99.90;;;;;;5017837;28;20288;-88
2022/08/18 12:11:34;;;;;;;9.15;8.32;;;24.50;99.90;;;;;;5034017;28;20178;-88
2022/08/18 12:14:15;;;;;;;8.63;7.72;;;24.40;99.90;;;;;;5017881;28;20159;-88
2022/08/18 12:16:42;;;;;;;9.30;8.45;;;24.40;99.90;;;;;;5017835;28;20171;-88
2022/08/18 12:19:11;;;;;;;8.45;7.70;;;24.20;99.90;;;;;;5017750;28;20636;-88
2022/08/18 12:21:44;;;;;;;8.82;7.93;;;24.10;99.90;;;;;;5017674;28;20221;-88
2022/08/18 12:24:27;;;;;;;8.60;7.85;;;24.00;99.90;;;;;;5017649;28;20185;-87
2022/08/18 12:26:54;;;;;;;9.02;8.15;;;24.00;99.90;;;;;;5016699;28;20202;-88
2022/08/18 12:29:21;;;;;;;8.88;8.10;;;23.90;99.90;;;;;;5017785;28;20262;-88
2022/08/18 12:31:50;;;;;;;9.15;8.25;;;23.80;99.90;;;;;;5017265;28;20220;-88
2022/08/18 12:34:18;;;;;;;8.90;8.10;;;23.70;99.90;;;;;;5017501;28;20269;-88
2022/08/18 12:36:45;;;;;;;8.45;7.65;;;23.60;99.90;;;;;;5017310;28;20182;-88
2022/08/18 12:39:11;;;;;;;8.32;7.50;;;23.60;99.90;;;;;;5033913;28;20249;-88
2022/08/18 12:41:37;;;;;;;8.77;7.90;;;23.70;99.90;;;;;;5017084;28;20290;-88
2022/08/18 12:44:03;;;;;;;9.20;8.30;;;23.70;99.90;;;;;;5017540;28;20251;-88
2022/08/18 12:46:29;;;;;;;8.27;7.47;;;23.80;99.90;;;;;;5017517;28;20276;-88
2022/08/18 12:48:55;;;;;;;9.05;8.15;;;23.80;99.90;;;;;;5017598;28;20182;-88
2022/08/18 12:51:21;;;;;;;8.93;8.20;;;23.80;99.90;;;;;;5033929;28;20186;-88
2022/08/18 12:53:48;;;;;;;8.65;7.95;;;23.80;99.90;;;;;;5017882;28;20705;-88
2022/08/18 12:56:21;;;;;;;8.20;7.50;;;23.80;99.90;;;;;;5017211;28;20214;-88
2022/08/18 12:58:48;;;;;;;8.75;7.97;;;23.90;99.90;;;;;;5033441;28;20186;-88
2022/08/18 13:01:16;;;;;;;8.13;7.43;;;24.00;99.90;;;;;;5016769;28;20214;-88
2022/08/18 13:03:43;;;;;;;9.02;8.18;;;24.20;99.90;;;;;;5017032;28;20194;-88
2022/08/18 13:06:10;;;;;;;8.65;7.95;;;24.30;99.90;;;;;;5017072;28;20218;-88
2022/08/18 13:08:36;;;;;;;8.95;8.05;;;24.30;99.90;;;;;;5016856;28;20267;-88
2022/08/18 13:11:04;;;;;;;8.68;7.88;;;24.40;99.90;;;;;;5016690;28;20174;-88
2022/08/18 13:13:30;;;;;;;8.35;7.55;;;24.50;99.90;;;;;;5016733;28;20199;-88
2022/08/18 13:15:56;;;;;;;7.95;7.13;;;24.60;99.90;;;;;;5017131;28;20213;-88
2022/08/18 13:18:22;;;;;;;8.45;7.10;;;24.70;99.90;;;;;;5016821;28;20620;-88
2022/08/18 13:20:48;;;;;;;7.45;6.85;;;24.70;99.90;;;;;;5033943;28;20174;-88
2022/08/18 13:23:14;;;;;;;8.32;7.53;;;24.70;99.90;;;;;;5016853;28;20206;-88
2022/08/18 13:25:40;;;;;;;8.55;7.85;;;24.80;99.90;;;;;;5016731;28;20217;-88
2022/08/18 13:28:06;;;;;;;7.88;7.22;;;24.90;99.90;;;;;;5016446;28;20179;-88
2022/08/18 13:30:32;;;;;;;8.15;7.35;;;25.10;99.90;;;;;;5016193;28;20179;-88
2022/08/18 13:33:00;;;;;;;7.45;6.85;;;25.20;99.90;;;;;;5016309;28;20199;-88